createdAt,value
2018-10-17T00:00:55.792Z,7.8
2018-10-17T00:01:57.344Z,7.8
2018-10-17T00:02:58.714Z,7.8
2018-10-17T00:04:00.106Z,7.8
2018-10-17T00:05:02.216Z,7.8
2018-10-17T00:06:03.665Z,7.8
2018-10-17T00:07:05.578Z,7.8
2018-10-17T00:08:07.118Z,7.8
2018-10-17T00:09:08.649Z,7.8
2018-10-17T00:10:10.197Z,7.8
2018-10-17T00:11:12.151Z,7.8
2018-10-17T00:12:13.739Z,7.8
2018-10-17T00:13:15.945Z,7.8
2018-10-17T00:14:17.584Z,7.8
2018-10-17T00:15:19.111Z,7.8
2018-10-17T00:16:20.660Z,7.8
2018-10-17T00:17:22.026Z,7.8
2018-10-17T00:18:23.580Z,7.8
2018-10-17T00:19:25.305Z,7.8
2018-10-17T00:20:26.907Z,7.8
2018-10-17T00:21:28.277Z,7.8
2018-10-17T00:22:29.812Z,7.8
2018-10-17T00:23:31.181Z,7.8
2018-10-17T00:24:32.708Z,7.8
2018-10-17T00:25:34.257Z,7.9
2018-10-17T00:26:35.810Z,7.8
2018-10-17T00:27:37.360Z,7.9
2018-10-17T00:28:38.887Z,7.9
2018-10-17T00:29:40.438Z,7.9
2018-10-17T00:30:42.184Z,7.9
2018-10-17T00:31:43.731Z,7.9
2018-10-17T00:32:45.278Z,7.9
2018-10-17T00:33:46.650Z,7.9
2018-10-17T00:34:48.184Z,7.9
2018-10-17T00:35:49.727Z,7.9
2018-10-17T00:36:51.386Z,7.9
2018-10-17T00:37:52.938Z,7.9
2018-10-17T00:38:54.293Z,7.9
2018-10-17T00:39:55.652Z,7.9
2018-10-17T00:40:57.411Z,7.9
2018-10-17T00:41:58.958Z,7.9
2018-10-17T00:43:00.561Z,7.9
2018-10-17T00:44:02.116Z,7.9
2018-10-17T00:45:03.661Z,7.9
2018-10-17T00:46:05.208Z,7.9
2018-10-17T00:47:07.358Z,7.9
2018-10-17T00:48:08.592Z,7.9
2018-10-17T00:49:10.863Z,7.9
2018-10-17T00:50:12.266Z,7.9
2018-10-17T00:51:13.809Z,7.9
2018-10-17T00:52:15.338Z,7.9
2018-10-17T00:53:17.489Z,7.9
2018-10-17T00:54:18.998Z,7.9
2018-10-17T00:55:20.528Z,7.9
2018-10-17T00:56:21.891Z,7.9
2018-10-17T00:57:23.251Z,7.9
2018-10-17T00:58:24.787Z,7.6
2018-10-17T00:59:26.318Z,7.7
2018-10-17T01:00:27.876Z,7.7
2018-10-17T01:01:29.399Z,7.8
2018-10-17T01:02:30.779Z,7.8
2018-10-17T01:03:32.316Z,7.9
2018-10-17T01:04:33.858Z,7.9
2018-10-17T01:05:35.407Z,7.9
2018-10-17T01:06:36.931Z,7.9
2018-10-17T01:07:38.350Z,7.8
2018-10-17T01:08:39.877Z,7.8
2018-10-17T01:09:41.417Z,7.8
2018-10-17T01:10:42.958Z,7.7
2018-10-17T01:11:44.558Z,7.7
2018-10-17T01:12:46.121Z,7.6
2018-10-17T01:13:47.656Z,7.6
2018-10-17T01:14:48.887Z,7.6
2018-10-17T01:15:50.424Z,7.6
2018-10-17T01:16:52.123Z,7.6
2018-10-17T01:17:53.669Z,7.7
2018-10-17T01:18:55.273Z,7.6
2018-10-17T01:19:56.658Z,7.6
2018-10-17T01:20:58.197Z,7.6
2018-10-17T01:21:59.728Z,7.5
2018-10-17T01:23:01.443Z,7.3
2018-10-17T01:24:02.979Z,7.2
2018-10-17T01:25:04.923Z,7.2
2018-10-17T01:26:06.470Z,7.1
2018-10-17T01:27:07.710Z,7.1
2018-10-17T01:28:09.241Z,7.2
2018-10-17T01:29:11.806Z,7.1
2018-10-17T01:30:13.054Z,7.1
2018-10-17T01:31:15.406Z,7.1
2018-10-17T01:32:17.047Z,7.1
2018-10-17T01:33:18.421Z,7.1
2018-10-17T01:34:19.950Z,7.1
2018-10-17T01:35:21.489Z,7.1
2018-10-17T01:36:23.021Z,7.1
2018-10-17T01:37:24.563Z,7.1
2018-10-17T01:38:26.137Z,7.1
2018-10-17T01:39:27.658Z,7.1
2018-10-17T01:40:29.237Z,7.1
2018-10-17T01:41:30.805Z,7.1
2018-10-17T01:42:32.345Z,7.2
2018-10-17T01:43:33.909Z,7.1
2018-10-17T01:44:35.467Z,7.1
2018-10-17T01:45:37.008Z,7.1
2018-10-17T01:46:38.530Z,7.2
2018-10-17T01:47:40.080Z,7.2
2018-10-17T01:48:41.625Z,7.1
2018-10-17T01:49:42.996Z,7.2
2018-10-17T01:50:44.363Z,7.2
2018-10-17T01:51:45.891Z,7.2
2018-10-17T01:52:47.275Z,7.2
2018-10-17T01:53:48.655Z,7.2
2018-10-17T01:54:50.175Z,7.2
2018-10-17T01:55:51.541Z,7.2
2018-10-17T01:56:53.059Z,7.2
2018-10-17T01:57:54.599Z,7.2
2018-10-17T01:58:56.325Z,7.2
2018-10-17T01:59:57.930Z,7.2
2018-10-17T02:00:59.750Z,7.2
2018-10-17T02:02:01.296Z,7.2
2018-10-17T02:03:02.828Z,7.2
2018-10-17T02:04:04.196Z,7.2
2018-10-17T02:05:06.223Z,7.2
2018-10-17T02:06:07.749Z,7.2
2018-10-17T02:07:09.986Z,7.2
2018-10-17T02:08:11.558Z,7.2
2018-10-17T02:09:13.102Z,7.2
2018-10-17T02:10:14.621Z,7.2
2018-10-17T02:11:17.257Z,7.2
2018-10-17T02:12:18.873Z,7.3
2018-10-17T02:13:20.403Z,7.3
2018-10-17T02:14:21.927Z,7.3
2018-10-17T02:15:23.448Z,7.3
2018-10-17T02:16:24.822Z,7.4
2018-10-17T02:17:26.028Z,7.4
2018-10-17T02:18:27.575Z,7.5
2018-10-17T02:19:29.126Z,7.5
2018-10-17T02:20:30.651Z,7.6
2018-10-17T02:21:32.190Z,7.6
2018-10-17T02:22:33.739Z,7.7
2018-10-17T02:23:35.272Z,7.7
2018-10-17T02:24:36.814Z,7.8
2018-10-17T02:25:38.328Z,7.8
2018-10-17T02:26:39.869Z,7.8
2018-10-17T02:27:41.411Z,7.9
2018-10-17T02:28:42.945Z,7.9
2018-10-17T02:29:44.667Z,7.9
2018-10-17T02:30:46.060Z,7.9
2018-10-17T02:31:47.436Z,7.9
2018-10-17T02:32:48.817Z,7.9
2018-10-17T02:33:50.352Z,7.9
2018-10-17T02:34:52.062Z,7.9
2018-10-17T02:35:53.616Z,7.9
2018-10-17T02:36:55.428Z,7.9
2018-10-17T02:37:56.979Z,7.9
2018-10-17T02:38:58.528Z,7.9
2018-10-17T02:40:00.083Z,7.9
2018-10-17T02:41:01.996Z,7.9
2018-10-17T02:42:03.647Z,7.9
2018-10-17T02:43:05.939Z,7.9
2018-10-17T02:44:07.517Z,7.9
2018-10-17T02:45:09.046Z,7.9
2018-10-17T02:46:10.593Z,7.9
2018-10-17T02:47:12.836Z,7.9
2018-10-17T02:48:14.289Z,7.9
2018-10-17T02:49:16.667Z,7.9
2018-10-17T02:50:18.160Z,7.9
2018-10-17T02:51:19.711Z,7.9
2018-10-17T02:52:21.263Z,7.9
2018-10-17T02:53:22.832Z,7.9
2018-10-17T02:54:24.589Z,7.9
2018-10-17T02:55:26.140Z,7.9
2018-10-17T02:56:27.524Z,7.9
2018-10-17T02:57:29.057Z,7.9
2018-10-17T02:58:30.605Z,7.9
2018-10-17T02:59:32.179Z,7.9
2018-10-17T03:00:33.715Z,7.9
2018-10-17T03:01:35.270Z,7.9
2018-10-17T03:02:36.680Z,7.9
2018-10-17T03:03:38.045Z,7.9
2018-10-17T03:04:39.603Z,7.9
2018-10-17T03:05:41.169Z,7.9
2018-10-17T03:06:42.716Z,7.9
2018-10-17T03:07:44.272Z,7.4
2018-10-17T03:08:45.866Z,7.5
2018-10-17T03:09:47.422Z,7.7
2018-10-17T03:10:49.198Z,7.8
2018-10-17T03:11:50.754Z,7.9
2018-10-17T03:12:52.500Z,7.9
2018-10-17T03:13:54.069Z,7.9
2018-10-17T03:14:55.609Z,7.9
2018-10-17T03:15:57.167Z,7.9
2018-10-17T03:16:59.008Z,7.9
2018-10-17T03:18:00.406Z,7.9
2018-10-17T03:19:02.384Z,7.9
2018-10-17T03:20:03.970Z,7.9
2018-10-17T03:21:05.512Z,7.8
2018-10-17T03:22:07.067Z,7.8
2018-10-17T03:23:09.313Z,7.7
2018-10-17T03:24:10.958Z,7.6
2018-10-17T03:25:13.532Z,7.4
2018-10-17T03:26:15.160Z,7.2
2018-10-17T03:27:16.746Z,7.2
2018-10-17T03:28:18.807Z,7.2
2018-10-17T03:29:20.840Z,7.2
2018-10-17T03:30:22.251Z,7.2
2018-10-17T03:31:24.931Z,7.2
2018-10-17T03:32:26.573Z,7.2
2018-10-17T03:33:28.124Z,7.2
2018-10-17T03:34:29.499Z,7.1
2018-10-17T03:35:31.053Z,7.2
2018-10-17T03:36:32.441Z,7.1
2018-10-17T03:37:33.830Z,7.2
2018-10-17T03:38:35.370Z,7.1
2018-10-17T03:39:36.929Z,7.2
2018-10-17T03:40:38.329Z,7.2
2018-10-17T03:41:39.704Z,7.2
2018-10-17T03:42:41.263Z,7.2
2018-10-17T03:43:42.824Z,7.2
2018-10-17T03:44:44.779Z,7.2
2018-10-17T03:45:46.441Z,7.2
2018-10-17T03:46:48.035Z,7.2
2018-10-17T03:47:49.619Z,7.2
2018-10-17T03:48:51.296Z,7.2
2018-10-17T03:49:53.455Z,7.2
2018-10-17T03:50:55.049Z,7.2
2018-10-17T03:51:56.646Z,7.2
2018-10-17T03:52:58.528Z,7.2
2018-10-17T03:53:59.988Z,7.2
2018-10-17T03:55:01.800Z,7.2
2018-10-17T03:56:03.270Z,7.3
2018-10-17T03:57:04.820Z,7.3
2018-10-17T03:58:06.398Z,7.3
2018-10-17T03:59:08.423Z,7.4
2018-10-17T04:00:10.078Z,7.5
2018-10-17T04:01:12.283Z,7.7
2018-10-17T04:02:13.875Z,7.8
2018-10-17T04:03:16.010Z,7.9
2018-10-17T04:04:17.504Z,7.9
2018-10-17T04:05:20.144Z,7.9
2018-10-17T04:06:21.745Z,7.9
2018-10-17T04:07:23.541Z,7.9
2018-10-17T04:08:25.136Z,7.9
2018-10-17T04:09:26.737Z,7.6
2018-10-17T04:10:28.302Z,7.8
2018-10-17T04:11:29.854Z,7.9
2018-10-17T04:12:31.451Z,7.9
2018-10-17T04:13:32.861Z,7.9
2018-10-17T04:14:34.443Z,7.9
2018-10-17T04:15:36.026Z,7.9
2018-10-17T04:16:37.570Z,7.9
2018-10-17T04:17:39.148Z,7.9
2018-10-17T04:18:40.723Z,7.9
2018-10-17T04:19:42.308Z,7.9
2018-10-17T04:20:44.392Z,7.9
2018-10-17T04:21:45.812Z,7.9
2018-10-17T04:22:48.262Z,7.9
2018-10-17T04:23:49.823Z,7.9
2018-10-17T04:24:51.529Z,7.9
2018-10-17T04:25:53.099Z,7.9
2018-10-17T04:26:54.646Z,7.9
2018-10-17T04:27:56.223Z,7.9
2018-10-17T04:28:58.069Z,7.9
2018-10-17T04:29:59.473Z,7.9
2018-10-17T04:31:01.366Z,7.9
2018-10-17T04:32:02.798Z,7.9
2018-10-17T04:33:04.360Z,7.9
2018-10-17T04:34:05.919Z,7.9
2018-10-17T04:35:08.086Z,7.9
2018-10-17T04:36:10.344Z,7.9
2018-10-17T04:37:12.507Z,7.9
2018-10-17T04:38:14.101Z,7.8
2018-10-17T04:39:15.665Z,7.8
2018-10-17T04:40:17.228Z,7.8
2018-10-17T04:41:19.975Z,7.8
2018-10-17T04:42:21.547Z,7.8
2018-10-17T04:43:22.797Z,7.8
2018-10-17T04:44:24.357Z,7.8
2018-10-17T04:45:25.756Z,7.8
2018-10-17T04:46:27.328Z,7.8
2018-10-17T04:47:29.190Z,7.8
2018-10-17T04:48:30.820Z,7.8
2018-10-17T04:49:32.383Z,7.9
2018-10-17T04:50:33.931Z,7.9
2018-10-17T04:51:35.490Z,7.9
2018-10-17T04:52:37.054Z,7.9
2018-10-17T04:53:38.603Z,7.9
2018-10-17T04:54:40.150Z,7.9
2018-10-17T04:55:41.709Z,7.9
2018-10-17T04:56:43.268Z,7.9
2018-10-17T04:57:44.956Z,7.9
2018-10-17T04:58:46.556Z,7.9
2018-10-17T04:59:48.011Z,7.9
2018-10-17T05:00:49.584Z,7.9
2018-10-17T05:01:51.160Z,7.9
2018-10-17T05:02:52.268Z,7.8
2018-10-17T05:03:53.818Z,7.8
2018-10-17T05:04:55.672Z,7.8
2018-10-17T05:05:57.066Z,7.8
2018-10-17T05:06:59.625Z,7.8
2018-10-17T05:08:01.324Z,7.9
2018-10-17T05:09:02.888Z,7.9
2018-10-17T05:10:04.433Z,7.9
2018-10-17T05:11:06.328Z,7.1
2018-10-17T05:12:07.717Z,7.2
2018-10-17T05:13:09.944Z,7.3
2018-10-17T05:14:11.648Z,7.3
2018-10-17T05:15:13.803Z,7.2
2018-10-17T05:16:15.129Z,7.2
2018-10-17T05:17:16.849Z,7.2
2018-10-17T05:18:18.441Z,7.2
2018-10-17T05:19:20.167Z,7.2
2018-10-17T05:20:21.557Z,7.2
2018-10-17T05:21:22.943Z,7.2
2018-10-17T05:22:24.492Z,7.1
2018-10-17T05:23:26.048Z,7.2
2018-10-17T05:24:27.595Z,7.2
2018-10-17T05:25:29.168Z,7.2
2018-10-17T05:26:30.718Z,7.1
2018-10-17T05:27:32.272Z,7.2
2018-10-17T05:28:33.808Z,7.1
2018-10-17T05:29:35.535Z,7.2
2018-10-17T05:30:37.214Z,7.2
2018-10-17T05:31:38.767Z,7.2
2018-10-17T05:32:40.349Z,7.2
2018-10-17T05:33:41.728Z,7.2
2018-10-17T05:34:43.308Z,7.2
2018-10-17T05:35:44.860Z,7.2
2018-10-17T05:36:46.258Z,7.2
2018-10-17T05:37:49.184Z,7.2
2018-10-17T05:38:50.871Z,7.2
2018-10-17T05:39:52.418Z,7.2
2018-10-17T05:40:54.217Z,7.2
2018-10-17T05:41:55.788Z,7.2
2018-10-17T05:42:57.600Z,7.2
2018-10-17T05:43:59.177Z,7.2
2018-10-17T05:45:00.578Z,7.2
2018-10-17T05:46:01.948Z,7.2
2018-10-17T05:47:03.989Z,7.2
2018-10-17T05:48:05.561Z,7.2
2018-10-17T05:49:07.750Z,7.2
2018-10-17T05:50:09.291Z,7.3
2018-10-17T05:51:10.838Z,7.3
2018-10-17T05:52:12.376Z,7.3
2018-10-17T05:53:14.085Z,7.4
2018-10-17T05:54:15.699Z,7.4
2018-10-17T05:55:18.443Z,7.5
2018-10-17T05:56:20.053Z,7.6
2018-10-17T05:57:21.607Z,7.6
2018-10-17T05:58:23.147Z,7.7
2018-10-17T05:59:24.733Z,7.8
2018-10-17T06:00:26.292Z,7.8
2018-10-17T06:01:28.504Z,7.9
2018-10-17T06:02:30.888Z,7.9
2018-10-17T06:03:32.369Z,7.9
2018-10-17T06:04:33.925Z,7.9
2018-10-17T06:05:35.478Z,7.9
2018-10-17T06:06:36.854Z,7.9
2018-10-17T06:07:38.431Z,7.9
2018-10-17T06:08:39.987Z,7.9
2018-10-17T06:09:41.379Z,7.9
2018-10-17T06:10:42.925Z,7.9
2018-10-17T06:11:44.313Z,7.9
2018-10-17T06:12:45.849Z,7.9
2018-10-17T06:13:47.393Z,7.9
2018-10-17T06:14:48.953Z,7.9
2018-10-17T06:15:50.491Z,7.9
2018-10-17T06:16:52.786Z,7.9
2018-10-17T06:17:54.415Z,7.9
2018-10-17T06:18:56.367Z,7.9
2018-10-17T06:19:57.938Z,7.9
2018-10-17T06:20:59.325Z,7.9
2018-10-17T06:22:00.869Z,7.9
2018-10-17T06:23:03.007Z,7.9
2018-10-17T06:24:04.623Z,7.9
2018-10-17T06:25:06.710Z,7.9
2018-10-17T06:26:08.280Z,7.9
2018-10-17T06:27:09.849Z,7.9
2018-10-17T06:28:11.538Z,7.9
2018-10-17T06:29:13.329Z,7.9
2018-10-17T06:30:14.976Z,7.9
2018-10-17T06:31:17.552Z,7.9
2018-10-17T06:32:18.935Z,7.9
2018-10-17T06:33:20.463Z,7.9
2018-10-17T06:34:22.586Z,7.9
2018-10-17T06:35:24.217Z,7.9
2018-10-17T06:36:25.600Z,7.9
2018-10-17T06:37:27.159Z,7.9
2018-10-17T06:38:28.711Z,7.9
2018-10-17T06:39:30.248Z,7.9
2018-10-17T06:40:31.777Z,7.9
2018-10-17T06:41:33.332Z,7.9
2018-10-17T06:42:34.875Z,7.9
2018-10-17T06:43:37.211Z,7.9
2018-10-17T06:44:38.854Z,7.9
2018-10-17T06:45:40.706Z,7.9
2018-10-17T06:46:42.280Z,7.9
2018-10-17T06:47:43.859Z,7.9
2018-10-17T06:48:45.433Z,7.9
2018-10-17T06:49:46.819Z,7.9
2018-10-17T06:50:48.365Z,7.9
2018-10-17T06:51:49.769Z,7.9
2018-10-17T06:52:51.342Z,7.9
2018-10-17T06:53:53.540Z,7.9
2018-10-17T06:54:55.426Z,7.9
2018-10-17T06:55:56.961Z,7.9
2018-10-17T06:56:58.510Z,7.2
2018-10-17T06:57:59.884Z,7.3
2018-10-17T06:59:01.903Z,7.4
2018-10-17T07:00:03.539Z,7.4
2018-10-17T07:01:05.880Z,7.4
2018-10-17T07:02:07.773Z,7.4
2018-10-17T07:03:09.163Z,7.3
2018-10-17T07:04:10.734Z,7.2
2018-10-17T07:05:12.798Z,7.2
2018-10-17T07:06:14.443Z,7.2
2018-10-17T07:07:16.847Z,7.2
2018-10-17T07:08:18.700Z,7.2
2018-10-17T07:09:20.573Z,7.2
2018-10-17T07:10:22.139Z,7.1
2018-10-17T07:11:24.534Z,7.2
2018-10-17T07:12:25.768Z,7.2
2018-10-17T07:13:27.154Z,7.2
2018-10-17T07:14:28.545Z,7.2
2018-10-17T07:15:31.695Z,7.2
2018-10-17T07:16:33.429Z,7.1
2018-10-17T07:17:34.982Z,7.1
2018-10-17T07:18:36.550Z,7.2
2018-10-17T07:19:38.092Z,7.1
2018-10-17T07:20:39.467Z,7.2
2018-10-17T07:21:40.860Z,7.2
2018-10-17T07:22:42.256Z,7.2
2018-10-17T07:23:43.630Z,7.2
2018-10-17T07:24:45.020Z,7.2
2018-10-17T07:25:46.589Z,7.2
2018-10-17T07:26:47.979Z,7.2
2018-10-17T07:27:49.545Z,7.2
2018-10-17T07:28:51.519Z,7.2
2018-10-17T07:29:54.419Z,7.2
2018-10-17T07:30:55.847Z,7.2
2018-10-17T07:31:57.394Z,7.2
2018-10-17T07:32:58.799Z,7.2
2018-10-17T07:34:00.399Z,7.2
2018-10-17T07:35:02.012Z,7.3
2018-10-17T07:36:03.861Z,7.3
2018-10-17T07:37:05.498Z,7.4
2018-10-17T07:38:06.890Z,7.5
2018-10-17T07:39:08.462Z,7.5
2018-10-17T07:40:10.022Z,7.6
2018-10-17T07:41:11.567Z,7.7
2018-10-17T07:42:14.018Z,7.7
2018-10-17T07:43:15.471Z,7.8
2018-10-17T07:44:17.015Z,7.8
2018-10-17T07:45:18.557Z,7.9
2018-10-17T07:46:20.120Z,7.9
2018-10-17T07:47:21.681Z,7.9
2018-10-17T07:48:23.071Z,7.9
2018-10-17T07:49:24.629Z,7.9
2018-10-17T07:50:26.028Z,7.9
2018-10-17T07:51:27.432Z,7.9
2018-10-17T07:52:29.000Z,7.9
2018-10-17T07:53:31.391Z,7.9
2018-10-17T07:54:32.793Z,7.9
2018-10-17T07:55:34.362Z,7.9
2018-10-17T07:56:35.986Z,7.9
2018-10-17T07:57:37.558Z,7.9
2018-10-17T07:58:38.963Z,7.9
2018-10-17T07:59:40.701Z,7.9
2018-10-17T08:00:42.012Z,7.9
2018-10-17T08:01:43.591Z,7.9
2018-10-17T08:02:45.155Z,7.9
2018-10-17T08:03:46.772Z,7.8
2018-10-17T08:04:48.321Z,7.8
2018-10-17T08:05:49.860Z,7.9
2018-10-17T08:06:51.312Z,7.9
2018-10-17T08:07:52.872Z,7.9
2018-10-17T08:08:54.430Z,7.8
2018-10-17T08:09:55.981Z,7.9
2018-10-17T08:10:57.527Z,7.8
2018-10-17T08:11:59.544Z,7.8
2018-10-17T08:13:00.970Z,7.8
2018-10-17T08:14:02.997Z,7.8
2018-10-17T08:15:04.429Z,7.8
2018-10-17T08:16:05.835Z,7.8
2018-10-17T08:17:07.387Z,7.9
2018-10-17T08:18:09.423Z,7.9
2018-10-17T08:19:11.048Z,7.9
2018-10-17T08:20:12.280Z,7.9
2018-10-17T08:21:14.198Z,7.8
2018-10-17T08:22:15.603Z,7.8
2018-10-17T08:23:17.159Z,7.9
2018-10-17T08:24:19.262Z,7.8
2018-10-17T08:25:20.860Z,7.8
2018-10-17T08:26:22.421Z,7.8
2018-10-17T08:27:24.365Z,7.8
2018-10-17T08:28:25.926Z,7.8
2018-10-17T08:29:27.151Z,7.7
2018-10-17T08:30:28.389Z,7.7
2018-10-17T08:31:29.942Z,7.7
2018-10-17T08:32:31.355Z,7.7
2018-10-17T08:33:32.898Z,7.6
2018-10-17T08:34:34.283Z,7.6
2018-10-17T08:35:36.803Z,7.6
2018-10-17T08:36:39.961Z,7.6
2018-10-17T08:37:46.069Z,7.6
2018-10-17T08:38:47.721Z,7.6
2018-10-17T08:39:49.268Z,7.7
2018-10-17T08:40:51.102Z,7.7
2018-10-17T08:41:52.342Z,7.8
2018-10-17T08:42:53.923Z,7.8
2018-10-17T08:43:55.751Z,7.9
2018-10-17T08:44:57.604Z,7.3
2018-10-17T08:45:58.988Z,7.3
2018-10-17T08:47:00.554Z,7.3
2018-10-17T08:48:02.120Z,7.3
2018-10-17T08:49:03.699Z,7.2
2018-10-17T08:50:05.737Z,7.2
2018-10-17T08:51:07.990Z,7.2
2018-10-17T08:52:09.685Z,7.2
2018-10-17T08:53:11.239Z,7.2
2018-10-17T08:54:12.629Z,7.2
2018-10-17T08:55:14.196Z,7.2
2018-10-17T08:56:16.209Z,7.2
2018-10-17T08:57:17.677Z,7.2
2018-10-17T08:58:19.226Z,7.2
2018-10-17T08:59:20.684Z,7.2
2018-10-17T09:00:22.250Z,7.1
2018-10-17T09:01:23.830Z,7.2
2018-10-17T09:02:25.392Z,7.1
2018-10-17T09:03:26.930Z,7.2
2018-10-17T09:04:28.478Z,7.1
2018-10-17T09:05:30.051Z,7.1
2018-10-17T09:06:31.630Z,7.2
2018-10-17T09:07:33.424Z,7.2
2018-10-17T09:08:35.009Z,7.2
2018-10-17T09:09:36.566Z,7.2
2018-10-17T09:10:38.111Z,7.2
2018-10-17T09:11:39.666Z,7.2
2018-10-17T09:12:41.219Z,7.2
2018-10-17T09:13:42.794Z,7.2
2018-10-17T09:14:44.354Z,7.2
2018-10-17T09:15:45.898Z,7.2
2018-10-17T09:16:48.320Z,7.2
2018-10-17T09:17:49.960Z,7.2
2018-10-17T09:18:51.508Z,7.2
2018-10-17T09:19:55.394Z,7.2
2018-10-17T09:21:00.661Z,7.2
2018-10-17T09:22:06.918Z,7.2
2018-10-17T09:23:08.698Z,7.2
2018-10-17T09:24:10.367Z,7.2
2018-10-17T09:25:12.631Z,7.2
2018-10-17T09:26:14.109Z,7.2
2018-10-17T09:27:15.510Z,7.2
2018-10-17T09:28:18.178Z,7.2
2018-10-17T09:29:19.521Z,7.2
2018-10-17T09:30:22.538Z,7.2
2018-10-17T09:31:24.016Z,7.2
2018-10-17T09:32:25.579Z,7.2
2018-10-17T09:33:27.135Z,7.2
2018-10-17T09:34:28.695Z,7.2
2018-10-17T09:35:30.303Z,7.2
2018-10-17T09:36:31.746Z,7.2
2018-10-17T09:37:33.287Z,7.2
2018-10-17T09:38:34.863Z,7.2
2018-10-17T09:39:36.412Z,7.2
2018-10-17T09:40:37.961Z,7.2
2018-10-17T09:41:39.381Z,7.3
2018-10-17T09:42:40.921Z,7.3
2018-10-17T09:43:42.477Z,7.3
2018-10-17T09:44:44.032Z,7.3
2018-10-17T09:45:45.425Z,7.3
2018-10-17T09:46:46.993Z,7.4
2018-10-17T09:47:48.390Z,7.4
2018-10-17T09:48:49.775Z,7.5
2018-10-17T09:49:51.174Z,7.5
2018-10-17T09:50:52.572Z,7.6
2018-10-17T09:51:54.150Z,7.6
2018-10-17T09:52:55.540Z,7.7
2018-10-17T09:53:57.423Z,7.7
2018-10-17T09:54:58.829Z,7.8
2018-10-17T09:56:00.382Z,7.8
2018-10-17T09:57:01.938Z,7.8
2018-10-17T09:58:18.429Z,7.9
2018-10-17T09:59:20.066Z,7.9
2018-10-17T10:00:22.073Z,7.9
2018-10-17T10:01:23.658Z,7.9
2018-10-17T10:02:25.992Z,7.9
2018-10-17T10:03:27.460Z,7.9
2018-10-17T10:04:28.849Z,7.9
2018-10-17T10:05:30.214Z,7.9
2018-10-17T10:06:31.773Z,7.9
2018-10-17T10:07:33.320Z,7.9
2018-10-17T10:08:34.699Z,7.9
2018-10-17T10:09:36.327Z,7.9
2018-10-17T10:10:37.911Z,7.9
2018-10-17T10:11:39.468Z,7.9
2018-10-17T10:12:40.887Z,7.9
2018-10-17T10:13:42.449Z,7.9
2018-10-17T10:14:43.841Z,7.9
2018-10-17T10:15:45.270Z,7.9
2018-10-17T10:16:46.848Z,7.9
2018-10-17T10:17:48.432Z,7.9
2018-10-17T10:18:49.994Z,7.9
2018-10-17T10:19:51.560Z,7.9
2018-10-17T10:20:53.110Z,7.9
2018-10-17T10:21:54.927Z,7.9
2018-10-17T10:22:56.890Z,7.9
2018-10-17T10:23:58.833Z,7.9
2018-10-17T10:25:01.490Z,7.9
2018-10-17T10:26:03.045Z,7.9
2018-10-17T10:27:04.439Z,7.9
2018-10-17T10:28:06.761Z,7.9
2018-10-17T10:29:08.320Z,7.6
2018-10-17T10:30:10.183Z,7.7
2018-10-17T10:31:11.829Z,7.8
2018-10-17T10:32:13.240Z,7.9
2018-10-17T10:33:14.619Z,7.9
2018-10-17T10:34:17.276Z,7.8
2018-10-17T10:35:18.718Z,7.9
2018-10-17T10:36:20.531Z,7.9
2018-10-17T10:37:22.134Z,7.9
2018-10-17T10:38:23.700Z,7.9
2018-10-17T10:39:25.239Z,7.8
2018-10-17T10:40:27.201Z,7.8
2018-10-17T10:41:28.760Z,7.8
2018-10-17T10:42:30.308Z,7.6
2018-10-17T10:43:31.870Z,7.5
2018-10-17T10:44:33.452Z,7.4
2018-10-17T10:45:35.858Z,7.3
2018-10-17T10:46:37.488Z,7.2
2018-10-17T10:47:39.055Z,7.2
2018-10-17T10:48:40.658Z,7.2
2018-10-17T10:49:42.250Z,7.2
2018-10-17T10:50:43.851Z,7.2
2018-10-17T10:51:46.333Z,7.2
2018-10-17T10:52:48.339Z,7.2
2018-10-17T10:53:49.752Z,7.2
2018-10-17T10:54:51.296Z,7.2
2018-10-17T10:55:53.080Z,7.2
2018-10-17T10:56:54.702Z,7.2
2018-10-17T10:57:56.929Z,7.2
2018-10-17T10:58:59.312Z,7.2
2018-10-17T11:00:01.423Z,7.2
2018-10-17T11:01:03.054Z,7.2
2018-10-17T11:02:05.153Z,7.2
2018-10-17T11:03:07.306Z,7.2
2018-10-17T11:04:08.773Z,7.2
2018-10-17T11:05:11.169Z,7.2
2018-10-17T11:06:12.644Z,7.2
2018-10-17T11:07:14.055Z,7.2
2018-10-17T11:08:16.700Z,7.2
2018-10-17T11:09:18.352Z,7.2
2018-10-17T11:10:19.899Z,7.2
2018-10-17T11:11:21.784Z,7.2
2018-10-17T11:12:23.404Z,7.2
2018-10-17T11:13:24.822Z,7.2
2018-10-17T11:14:27.094Z,7.2
2018-10-17T11:15:28.746Z,7.2
2018-10-17T11:16:30.121Z,7.2
2018-10-17T11:17:31.707Z,7.2
2018-10-17T11:18:33.272Z,7.2
2018-10-17T11:19:34.820Z,7.2
2018-10-17T11:20:36.613Z,7.2
2018-10-17T11:21:38.278Z,7.2
2018-10-17T11:22:39.870Z,7.2
2018-10-17T11:23:41.106Z,7.2
2018-10-17T11:24:42.685Z,7.2
2018-10-17T11:25:44.058Z,7.2
2018-10-17T11:26:45.637Z,7.2
2018-10-17T11:27:47.019Z,7.2
2018-10-17T11:28:48.577Z,7.2
2018-10-17T11:29:50.127Z,7.3
2018-10-17T11:30:51.525Z,7.3
2018-10-17T11:31:53.690Z,7.3
2018-10-17T11:32:55.640Z,7.3
2018-10-17T11:33:57.215Z,7.4
2018-10-17T11:34:59.144Z,7.4
2018-10-17T11:36:00.716Z,7.4
2018-10-17T11:37:02.270Z,7.5
2018-10-17T11:38:04.726Z,7.5
2018-10-17T11:39:06.845Z,7.6
2018-10-17T11:40:08.985Z,7.6
2018-10-17T11:41:11.575Z,7.7
2018-10-17T11:42:13.200Z,7.7
2018-10-17T11:43:14.755Z,7.7
2018-10-17T11:44:16.304Z,7.7
2018-10-17T11:45:18.850Z,7.8
2018-10-17T11:46:20.343Z,7.8
2018-10-17T11:47:21.938Z,7.8
2018-10-17T11:48:23.347Z,7.8
2018-10-17T11:49:24.742Z,7.9
2018-10-17T11:50:26.677Z,7.9
2018-10-17T11:51:28.246Z,7.9
2018-10-17T11:52:29.468Z,7.9
2018-10-17T11:53:31.235Z,7.9
2018-10-17T11:54:32.854Z,7.9
2018-10-17T11:55:34.261Z,7.9
2018-10-17T11:56:35.825Z,7.9
2018-10-17T11:57:37.400Z,7.9
2018-10-17T11:58:38.969Z,7.9
2018-10-17T11:59:41.327Z,7.9
2018-10-17T12:00:42.961Z,7.9
2018-10-17T12:01:44.508Z,7.9
2018-10-17T12:02:46.059Z,7.9
2018-10-17T12:03:49.130Z,7.9
2018-10-17T12:04:52.080Z,7.9
2018-10-17T12:05:55.479Z,7.9
2018-10-17T12:06:57.078Z,7.9
2018-10-17T12:07:58.643Z,7.9
2018-10-17T12:08:59.881Z,7.9
2018-10-17T12:10:01.453Z,7.9
2018-10-17T12:11:02.870Z,7.9
2018-10-17T12:12:04.859Z,7.9
2018-10-17T12:13:06.641Z,7.9
2018-10-17T12:14:08.225Z,7.8
2018-10-17T12:15:10.366Z,7.8
2018-10-17T12:16:11.993Z,7.8
2018-10-17T12:17:13.560Z,7.8
2018-10-17T12:18:15.982Z,7.9
2018-10-17T12:19:18.532Z,7.9
2018-10-17T12:20:20.201Z,7.9
2018-10-17T12:21:22.241Z,7.9
2018-10-17T12:22:23.588Z,7.9
2018-10-17T12:23:25.149Z,7.9
2018-10-17T12:24:26.548Z,7.9
2018-10-17T12:25:28.120Z,7.9
2018-10-17T12:26:29.679Z,7.9
2018-10-17T12:27:31.245Z,7.9
2018-10-17T12:28:33.825Z,7.9
2018-10-17T12:29:35.497Z,7.9
2018-10-17T12:30:37.052Z,7.9
2018-10-17T12:31:38.613Z,7.9
2018-10-17T12:32:39.999Z,7.9
2018-10-17T12:33:41.535Z,7.9
2018-10-17T12:34:43.129Z,7.3
2018-10-17T12:35:44.719Z,7.4
2018-10-17T12:36:46.285Z,7.5
2018-10-17T12:37:47.858Z,7.5
2018-10-17T12:38:49.648Z,7.6
2018-10-17T12:39:52.133Z,7.6
2018-10-17T12:40:55.451Z,7.6
2018-10-17T12:41:56.969Z,7.6
2018-10-17T12:42:58.436Z,7.5
2018-10-17T12:44:00.364Z,7.5
2018-10-17T12:45:02.105Z,7.4
2018-10-17T12:46:03.781Z,7.3
2018-10-17T12:47:06.082Z,7.2
2018-10-17T12:48:07.324Z,7.2
2018-10-17T12:49:09.726Z,7.2
2018-10-17T12:50:11.926Z,7.2
2018-10-17T12:51:13.355Z,7.2
2018-10-17T12:52:16.003Z,7.2
2018-10-17T12:53:17.879Z,7.2
2018-10-17T12:54:19.448Z,7.2
2018-10-17T12:55:21.038Z,7.2
2018-10-17T12:56:22.449Z,7.2
2018-10-17T12:57:23.988Z,7.2
2018-10-17T12:58:25.393Z,7.2
2018-10-17T12:59:26.993Z,7.2
2018-10-17T13:00:28.588Z,7.2
2018-10-17T13:01:30.157Z,7.2
2018-10-17T13:02:31.728Z,7.2
2018-10-17T13:03:33.127Z,7.2
2018-10-17T13:04:34.685Z,7.2
2018-10-17T13:05:36.241Z,7.2
2018-10-17T13:06:37.819Z,7.2
2018-10-17T13:07:39.378Z,7.2
2018-10-17T13:08:40.947Z,7.2
2018-10-17T13:09:42.333Z,7.2
2018-10-17T13:10:43.880Z,7.2
2018-10-17T13:11:45.436Z,7.2
2018-10-17T13:12:46.991Z,7.2
2018-10-17T13:13:48.544Z,7.2
2018-10-17T13:14:50.196Z,7.2
2018-10-17T13:15:51.590Z,7.2
2018-10-17T13:16:53.373Z,7.2
2018-10-17T13:17:54.947Z,7.2
2018-10-17T13:18:56.739Z,7.2
2018-10-17T13:19:58.059Z,7.2
2018-10-17T13:20:59.609Z,7.2
2018-10-17T13:22:01.171Z,7.2
2018-10-17T13:23:03.219Z,7.2
2018-10-17T13:24:04.440Z,7.2
2018-10-17T13:25:06.461Z,7.2
2018-10-17T13:26:08.080Z,7.2
2018-10-17T13:27:09.644Z,7.2
2018-10-17T13:28:10.879Z,7.2
2018-10-17T13:29:13.274Z,7.3
2018-10-17T13:30:14.913Z,7.3
2018-10-17T13:31:17.362Z,7.3
2018-10-17T13:32:19.000Z,7.3
2018-10-17T13:33:20.556Z,7.3
2018-10-17T13:34:23.131Z,7.3
2018-10-17T13:35:24.695Z,7.4
2018-10-17T13:36:26.257Z,7.4
2018-10-17T13:37:27.852Z,7.5
2018-10-17T13:38:29.447Z,7.5
2018-10-17T13:39:31.032Z,7.5
2018-10-17T13:40:32.588Z,7.5
2018-10-17T13:41:34.149Z,7.5
2018-10-17T13:42:35.760Z,7.5
2018-10-17T13:43:37.348Z,7.6
2018-10-17T13:44:38.900Z,7.6
2018-10-17T13:45:40.307Z,7.6
2018-10-17T13:46:41.869Z,7.7
2018-10-17T13:47:43.455Z,7.7
2018-10-17T13:48:45.146Z,7.7
2018-10-17T13:49:47.946Z,7.8
2018-10-17T13:50:49.599Z,7.8
2018-10-17T13:51:51.157Z,7.8
2018-10-17T13:52:52.789Z,7.8
2018-10-17T13:53:54.371Z,7.8
2018-10-17T13:54:56.419Z,7.8
2018-10-17T13:55:58.000Z,7.9
2018-10-17T13:56:59.411Z,7.9
2018-10-17T13:58:01.423Z,7.9
2018-10-17T13:59:03.266Z,7.9
2018-10-17T14:00:04.776Z,7.9
2018-10-17T14:01:06.891Z,7.9
2018-10-17T14:02:08.469Z,7.9
2018-10-17T14:03:09.709Z,7.7
2018-10-17T14:04:12.186Z,7.8
2018-10-17T14:05:13.838Z,7.9
2018-10-17T14:06:16.352Z,7.7
2018-10-17T14:07:18.656Z,7.8
2018-10-17T14:08:20.311Z,7.9
2018-10-17T14:09:21.919Z,7.9
2018-10-17T14:10:23.479Z,7.9